Time;durP1;ratioP1;P1;durP2;ratioP2;P2;SDS_P1;SDS_P2;PMS_P1;PMS_P2;Temp;Humidity;BMP_temperature;BMP_pressure;BME280_temperature;BME280_humidity;BME280_pressure;Samples;Min_cycle;Max_cycle;Signal;HPM_P1;HPM_P2
2022/01/30 00:00:33;;;;;;;;;;;;;;;;;;4965700;28;19962;-67
2022/01/30 00:02:59;;;;;;;;;;;;;;;;;;4964165;28;19938;-67
2022/01/30 00:05:27;;;;;;;;;;;;;;;;;;4965216;28;19926;-64
2022/01/30 00:07:53;;;;;;;;;;;;;;;;;;4965806;28;20001;-67
2022/01/30 00:10:19;;;;;;;;;;;;;;;;;;4965570;28;20526;-67
2022/01/30 00:12:52;;;;;;;;;;;;;;;;;;4963509;28;19929;-67
2022/01/30 00:15:19;;;;;;;;;;;;;;;;;;4965416;28;19958;-68
2022/01/30 00:17:52;;;;;;;;;;;;;;;;;;4965281;28;20017;-67
2022/01/30 00:20:22;;;;;;;;;;;;;;;;;;4964810;28;19984;-67
2022/01/30 00:23:06;;;;;;;;;;;;;;;;;;4964491;28;19926;-67
2022/01/30 00:25:44;;;;;;;;;;;;;;;;;;4965194;28;19977;-67
2022/01/30 00:28:12;;;;;;;;;;;;;;;;;;4964758;28;20348;-67
2022/01/30 00:30:38;;;;;;;;;;;;;;;;;;4965238;28;19926;-67
2022/01/30 00:33:04;;;;;;;;;;;;;;;;;;4965441;28;19926;-67
2022/01/30 00:35:33;;;;;;;;;;;;;;;;;;4964632;28;19977;-66
2022/01/30 00:37:59;;;;;;;;;;;;;;;;;;4965412;28;19926;-66
2022/01/30 00:40:25;;;;;;;;;;;;;;;;;;4965393;28;20015;-67
2022/01/30 00:42:51;;;;;;;;;;;;;;;;;;4965604;28;20419;-66
2022/01/30 00:45:17;;;;;;;;;;;;;;;;;;4965909;28;20335;-67
2022/01/30 00:47:43;;;;;;;;;;;;;;;;;;4965862;28;20003;-66
2022/01/30 00:50:09;;;;;;;;;;;;;;;;;;4947375;28;19926;-68
2022/01/30 00:52:35;;;;;;;;;;;;;;;;;;4965144;28;19926;-66
2022/01/30 00:55:01;;;;;;;;;;;;;;;;;;4966000;28;19933;-67
2022/01/30 00:57:27;;;;;;;;;;;;;;;;;;4964962;28;20288;-67
2022/01/30 00:59:54;;;;;;;;;;;;;;;;;;4967551;28;19933;-66
2022/01/30 01:02:20;;;;;;;;;;;;;;;;;;4951807;28;19934;-67
2022/01/30 01:04:46;;;;;;;;;;;;;;;;;;4968227;28;19930;-66
2022/01/30 01:07:18;;;;;;;;;;;;;;;;;;4968859;28;19926;-66
2022/01/30 01:09:52;;;;;;;;;;;;;;;;;;4951141;28;19926;-67
2022/01/30 01:12:42;;;;;;;;;;;;;;;;;;4968233;28;19934;-67
2022/01/30 01:23:35;;;;;;;;;;;;;;;;;;4968212;28;19932;-67
2022/01/30 01:26:01;;;;;;;;;;;;;;;;;;4965458;28;20453;-66
2022/01/30 01:28:27;;;;;;;;;;;;;;;;;;4968502;28;20042;-67
2022/01/30 01:30:53;;;;;;;;;;;;;;;;;;4968680;28;19970;-67
2022/01/30 01:33:20;;;;;;;;;;;;;;;;;;4968718;28;19930;-67
2022/01/30 01:35:46;;;;;;;;;;;;;;;;;;4967533;28;20675;-67
2022/01/30 01:38:14;;;;;;;;;;;;;;;;;;4968394;28;19997;-67
2022/01/30 01:40:40;;;;;;;;;;;;;;;;;;4967861;28;19958;-67
2022/01/30 01:43:06;;;;;;;;;;;;;;;;;;4968174;28;19926;-67
2022/01/30 01:45:36;;;;;;;;;;;;;;;;;;4967857;28;19934;-67
2022/01/30 01:48:08;;;;;;;;;;;;;;;;;;4968168;28;19957;-67
2022/01/30 01:50:39;;;;;;;;;;;;;;;;;;4967339;28;19930;-67
2022/01/30 01:53:05;;;;;;;;;;;;;;;;;;4967455;28;19927;-67
2022/01/30 01:55:31;;;;;;;;;;;;;;;;;;4967950;28;20026;-67
2022/01/30 01:57:57;;;;;;;;;;;;;;;;;;4968335;28;19926;-66
2022/01/30 02:00:23;;;;;;;;;;;;;;;;;;4968183;28;20269;-67
2022/01/30 02:02:49;;;;;;;;;;;;;;;;;;4967578;28;19926;-66
2022/01/30 02:05:15;;;;;;;;;;;;;;;;;;4949706;28;20034;-67
2022/01/30 02:10:17;;;;;;;;;;;;;;;;;;4967405;28;20296;-66
2022/01/30 02:12:49;;;;;;;;;;;;;;;;;;4966644;28;19933;-67
2022/01/30 02:26:00;;;;;;;;;;;;;;;;;;4965302;28;19926;-66
2022/01/30 02:28:27;;;;;;;;;;;;;;;;;;4964663;28;19937;-65
2022/01/30 02:31:00;;;;;;;;;;;;;;;;;;4967557;28;19926;-66
2022/01/30 02:33:26;;;;;;;;;;;;;;;;;;4967068;28;19957;-66
2022/01/30 02:35:52;;;;;;;;;;;;;;;;;;4966647;28;20303;-66
2022/01/30 02:38:18;;;;;;;;;;;;;;;;;;4966942;28;20405;-66
2022/01/30 02:40:47;;;;;;;;;;;;;;;;;;4966918;28;19935;-67
2022/01/30 02:43:16;;;;;;;;;;;;;;;;;;4966877;28;19934;-66
2022/01/30 02:45:48;;;;;;;;;;;;;;;;;;4966841;28;19933;-67
2022/01/30 02:48:19;;;;;;;;;;;;;;;;;;4966880;28;20053;-66
2022/01/30 02:51:07;;;;;;;;;;;;;;;;;;4965959;28;19933;-66
2022/01/30 02:53:38;;;;;;;;;;;;;;;;;;4966348;28;19926;-67
2022/01/30 02:56:04;;;;;;;;;;;;;;;;;;4966675;28;20395;-66
2022/01/30 02:58:30;;;;;;;;;;;;;;;;;;4966595;28;19930;-67
2022/01/30 03:00:56;;;;;;;;;;;;;;;;;;4966823;28;20019;-66
2022/01/30 03:03:22;;;;;;;;;;;;;;;;;;4966902;28;20049;-66
2022/01/30 03:05:48;;;;;;;;;;;;;;;;;;4965286;28;19926;-66
2022/01/30 03:08:14;;;;;;;;;;;;;;;;;;4966761;28;19926;-66
2022/01/30 03:10:40;;;;;;;;;;;;;;;;;;4966568;28;19936;-66
2022/01/30 03:13:06;;;;;;;;;;;;;;;;;;4966374;28;19981;-66
2022/01/30 03:15:32;;;;;;;;;;;;;;;;;;4966108;28;19951;-67
2022/01/30 03:17:58;;;;;;;;;;;;;;;;;;4966476;28;19973;-67
2022/01/30 03:20:24;;;;;;;;;;;;;;;;;;4966052;28;19934;-66
2022/01/30 03:22:50;;;;;;;;;;;;;;;;;;4965115;28;20303;-67
2022/01/30 03:25:16;;;;;;;;;;;;;;;;;;4966532;28;20392;-67
2022/01/30 03:27:52;;;;;;;;;;;;;;;;;;4965739;28;19926;-67
2022/01/30 03:30:25;;;;;;;;;;;;;;;;;;4966232;28;20020;-67
2022/01/30 03:32:51;;;;;;;;;;;;;;;;;;4965914;28;20428;-67
2022/01/30 03:35:17;;;;;;;;;;;;;;;;;;4965143;28;20469;-67
2022/01/30 03:37:43;;;;;;;;;;;;;;;;;;4965480;28;19949;-67
2022/01/30 03:40:09;;;;;;;;;;;;;;;;;;4966048;28;19954;-67
2022/01/30 03:42:35;;;;;;;;;;;;;;;;;;4965905;28;19954;-67
2022/01/30 03:45:01;;;;;;;;;;;;;;;;;;4966096;28;20488;-67
2022/01/30 03:47:27;;;;;;;;;;;;;;;;;;4965895;28;19966;-68
2022/01/30 03:49:53;;;;;;;;;;;;;;;;;;4965001;28;20009;-67
2022/01/30 03:52:19;;;;;;;;;;;;;;;;;;4965889;28;20120;-67
2022/01/30 03:54:45;;;;;;;;;;;;;;;;;;4965813;28;20000;-67
2022/01/30 03:57:11;;;;;;;;;;;;;;;;;;4965799;28;19932;-67
2022/01/30 03:59:37;;;;;;;;;;;;;;;;;;4965290;28;19933;-67
2022/01/30 04:02:03;;;;;;;;;;;;;;;;;;4965942;28;19981;-67
2022/01/30 04:04:31;;;;;;;;;;;;;;;;;;4965051;28;19926;-67
2022/01/30 04:06:58;;;;;;;;;;;;;;;;;;4963244;28;19926;-67
2022/01/30 04:09:24;;;;;;;;;;;;;;;;;;4965294;28;19927;-67
2022/01/30 04:11:50;;;;;;;;;;;;;;;;;;4964367;28;19958;-67
2022/01/30 04:14:16;;;;;;;;;;;;;;;;;;4965599;28;19982;-66
2022/01/30 04:16:42;;;;;;;;;;;;;;;;;;4965777;28;19934;-66
2022/01/30 04:19:08;;;;;;;;;;;;;;;;;;4964623;28;20125;-66
2022/01/30 04:21:34;;;;;;;;;;;;;;;;;;4965338;28;19926;-66
2022/01/30 04:24:00;;;;;;;;;;;;;;;;;;4964641;28;20304;-66
2022/01/30 04:26:26;;;;;;;;;;;;;;;;;;4965349;28;20383;-67
2022/01/30 04:28:52;;;;;;;;;;;;;;;;;;4965833;28;19926;-67
2022/01/30 04:31:18;;;;;;;;;;;;;;;;;;4965416;28;19927;-66
2022/01/30 04:33:44;;;;;;;;;;;;;;;;;;4961200;28;20384;-66
2022/01/30 04:36:15;;;;;;;;;;;;;;;;;;4969079;28;19938;-66
2022/01/30 04:38:56;;;;;;;;;;;;;;;;;;4969041;28;19922;-66
2022/01/30 04:41:38;;;;;;;;;;;;;;;;;;4952524;28;19945;-66
2022/01/30 04:52:46;;;;;;;;;;;;;;;;;;4968995;28;19962;-67
2022/01/30 04:56:12;;;;;;;;;;;;;;;;;;4969020;28;20296;-66
2022/01/30 05:00:58;;;;;;;;;;;;;;;;;;4968897;28;19933;-66
2022/01/30 05:03:55;;;;;;;;;;;;;;;;;;4968631;28;20419;-66
2022/01/30 05:06:32;;;;;;;;;;;;;;;;;;4969096;28;19933;-67
2022/01/30 05:08:58;;;;;;;;;;;;;;;;;;4968452;28;20009;-68
2022/01/30 05:11:24;;;;;;;;;;;;;;;;;;4968942;28;19926;-68
2022/01/30 05:13:50;;;;;;;;;;;;;;;;;;4951060;28;19926;-67
2022/01/30 05:16:17;;;;;;;;;;;;;;;;;;4968743;28;19992;-67
2022/01/30 05:18:43;;;;;;;;;;;;;;;;;;4967962;28;19930;-67
2022/01/30 05:21:09;;;;;;;;;;;;;;;;;;4968147;28;19981;-67
2022/01/30 05:23:35;;;;;;;;;;;;;;;;;;4967701;28;19981;-68
2022/01/30 05:26:01;;;;;;;;;;;;;;;;;;4968661;28;19938;-68
2022/01/30 05:28:27;;;;;;;;;;;;;;;;;;4968457;28;20435;-68
2022/01/30 05:30:53;;;;;;;;;;;;;;;;;;4968819;28;19973;-67
2022/01/30 05:33:19;;;;;;;;;;;;;;;;;;4967200;28;19926;-67
2022/01/30 05:35:45;;;;;;;;;;;;;;;;;;4968105;28;20208;-67
2022/01/30 05:38:11;;;;;;;;;;;;;;;;;;4968269;28;19926;-66
2022/01/30 05:40:37;;;;;;;;;;;;;;;;;;4968140;28;19929;-66
2022/01/30 05:43:04;;;;;;;;;;;;;;;;;;4967752;28;19981;-67
2022/01/30 05:45:35;;;;;;;;;;;;;;;;;;4967463;28;20173;-67
2022/01/30 05:48:14;;;;;;;;;;;;;;;;;;4968062;28;19926;-67
2022/01/30 05:50:40;;;;;;;;;;;;;;;;;;4966672;28;19926;-67
2022/01/30 05:53:06;;;;;;;;;;;;;;;;;;4967439;28;19954;-67
2022/01/30 05:55:32;;;;;;;;;;;;;;;;;;4967730;28;19989;-67
2022/01/30 05:57:58;;;;;;;;;;;;;;;;;;4967873;28;19934;-67
2022/01/30 06:00:24;;;;;;;;;;;;;;;;;;4968085;28;19926;-66
2022/01/30 06:02:50;;;;;;;;;;;;;;;;;;4967171;28;20038;-66
2022/01/30 06:05:18;;;;;;;;;;;;;;;;;;4966734;28;19934;-66
2022/01/30 06:07:50;;;;;;;;;;;;;;;;;;4949815;28;20285;-66
2022/01/30 06:10:16;;;;;;;;;;;;;;;;;;4967319;28;19934;-67
2022/01/30 06:12:42;;;;;;;;;;;;;;;;;;4967382;28;20283;-66
2022/01/30 06:15:08;;;;;;;;;;;;;;;;;;4967410;28;20411;-67
2022/01/30 06:17:34;;;;;;;;;;;;;;;;;;4967533;28;20447;-66
2022/01/30 06:20:00;;;;;;;;;;;;;;;;;;4966853;28;19930;-65
2022/01/30 06:22:26;;;;;;;;;;;;;;;;;;4967076;28;20388;-65
2022/01/30 06:24:52;;;;;;;;;;;;;;;;;;4967624;28;19933;-65
2022/01/30 06:27:18;;;;;;;;;;;;;;;;;;4966626;28;19926;-65
2022/01/30 06:29:44;;;;;;;;;;;;;;;;;;4967087;28;19926;-65
2022/01/30 06:32:10;;;;;;;;;;;;;;;;;;4966837;28;19929;-65
2022/01/30 06:34:36;;;;;;;;;;;;;;;;;;4965752;28;20407;-65
2022/01/30 06:37:02;;;;;;;;;;;;;;;;;;4966826;28;19926;-65
2022/01/30 06:39:28;;;;;;;;;;;;;;;;;;4965863;28;19926;-65
2022/01/30 06:41:54;;;;;;;;;;;;;;;;;;4966587;28;19927;-66
2022/01/30 06:44:20;;;;;;;;;;;;;;;;;;4966893;28;19932;-65
2022/01/30 06:46:46;;;;;;;;;;;;;;;;;;4966070;28;20307;-66
2022/01/30 06:49:12;;;;;;;;;;;;;;;;;;4966010;28;19933;-66
2022/01/30 06:51:38;;;;;;;;;;;;;;;;;;4964707;28;19989;-66
2022/01/30 06:54:04;;;;;;;;;;;;;;;;;;4966357;28;19938;-66
2022/01/30 06:56:30;;;;;;;;;;;;;;;;;;4966648;28;19948;-65
2022/01/30 06:58:56;;;;;;;;;;;;;;;;;;4960024;28;20417;-66
2022/01/30 07:01:23;;;;;;;;;;;;;;;;;;4960391;28;19969;-67
2022/01/30 07:03:49;;;;;;;;;;;;;;;;;;4955942;28;19945;-66
2022/01/30 07:06:15;;;;;;;;;;;;;;;;;;4957913;28;19933;-66
2022/01/30 07:08:41;;;;;;;;;;;;;;;;;;4953878;28;19930;-67
2022/01/30 07:11:07;;;;;;;;;;;;;;;;;;4952797;28;19926;-66
2022/01/30 07:13:33;;;;;;;;;;;;;;;;;;4954370;28;19973;-65
2022/01/30 07:15:59;;;;;;;;;;;;;;;;;;4946861;28;19927;-65
2022/01/30 07:18:25;;;;;;;;;;;;;;;;;;4950222;28;19926;-64
2022/01/30 07:20:51;;;;;;;;;;;;;;;;;;4951898;28;19941;-64
2022/01/30 07:23:17;;;;;;;;;;;;;;;;;;4949948;28;19927;-65
2022/01/30 07:25:44;;;;;;;;;;;;;;;;;;4949934;28;19931;-65
2022/01/30 07:28:10;;;;;;;;;;;;;;;;;;4946421;28;19934;-64
2022/01/30 07:30:36;;;;;;;;;;;;;;;;;;4953861;28;19926;-64
2022/01/30 07:33:02;;;;;;;;;;;;;;;;;;4952556;28;20016;-66
2022/01/30 07:35:28;;;;;;;;;;;;;;;;;;4951075;28;20030;-65
2022/01/30 07:37:54;;;;;;;;;;;;;;;;;;4950197;28;20061;-64
2022/01/30 07:40:21;;;;;;;;;;;;;;;;;;4950412;28;19941;-65
2022/01/30 07:42:47;;;;;;;;;;;;;;;;;;4957730;28;19930;-65
2022/01/30 07:45:13;;;;;;;;;;;;;;;;;;4955324;28;19973;-66
2022/01/30 07:47:39;;;;;;;;;;;;;;;;;;4956976;28;20004;-65
2022/01/30 07:50:05;;;;;;;;;;;;;;;;;;4956639;28;20009;-65
2022/01/30 07:52:31;;;;;;;;;;;;;;;;;;4954144;28;19965;-65
2022/01/30 07:54:57;;;;;;;;;;;;;;;;;;4955320;28;19934;-65
2022/01/30 07:57:23;;;;;;;;;;;;;;;;;;4957225;28;19933;-66
2022/01/30 07:59:49;;;;;;;;;;;;;;;;;;4964458;28;20407;-66
2022/01/30 08:02:15;;;;;;;;;;;;;;;;;;4966123;28;19996;-67
2022/01/30 08:04:41;;;;;;;;;;;;;;;;;;4964446;28;19976;-66
2022/01/30 08:07:07;;;;;;;;;;;;;;;;;;4965926;28;19980;-66
2022/01/30 08:09:33;;;;;;;;;;;;;;;;;;4947334;28;20450;-66
2022/01/30 08:11:59;;;;;;;;;;;;;;;;;;4965202;28;19926;-67
2022/01/30 08:14:25;;;;;;;;;;;;;;;;;;4966132;28;20331;-67
2022/01/30 08:16:51;;;;;;;;;;;;;;;;;;4948582;28;20376;-66
2022/01/30 08:19:20;;;;;;;;;;;;;;;;;;4963999;28;20069;-67
2022/01/30 08:21:47;;;;;;;;;;;;;;;;;;4963953;28;19965;-66
2022/01/30 08:24:13;;;;;;;;;;;;;;;;;;4964714;28;19929;-66
2022/01/30 08:26:39;;;;;;;;;;;;;;;;;;4965187;28;19926;-66
2022/01/30 08:29:05;;;;;;;;;;;;;;;;;;4965539;28;19934;-66
2022/01/30 08:31:31;;;;;;;;;;;;;;;;;;4965432;28;19933;-67
2022/01/30 08:33:57;;;;;;;;;;;;;;;;;;4964132;28;20036;-67
2022/01/30 08:36:23;;;;;;;;;;;;;;;;;;4965737;28;20109;-67
2022/01/30 08:38:49;;;;;;;;;;;;;;;;;;4965370;28;20050;-67
2022/01/30 08:41:15;;;;;;;;;;;;;;;;;;4965750;28;20708;-66
2022/01/30 08:43:42;;;;;;;;;;;;;;;;;;4965237;28;19926;-67
2022/01/30 08:46:08;;;;;;;;;;;;;;;;;;4965798;28;19926;-68
2022/01/30 08:48:34;;;;;;;;;;;;;;;;;;4957892;28;20005;-65
2022/01/30 08:51:00;;;;;;;;;;;;;;;;;;4960669;28;19934;-75
2022/01/30 08:53:26;;;;;;;;;;;;;;;;;;4964621;28;19988;-66
2022/01/30 08:55:52;;;;;;;;;;;;;;;;;;4965818;28;19984;-71
2022/01/30 08:58:18;;;;;;;;;;;;;;;;;;4965540;28;19954;-72
2022/01/30 09:00:44;;;;;;;;;;;;;;;;;;4961691;28;19926;-72
2022/01/30 09:03:10;;;;;;;;;;;;;;;;;;4964402;28;19930;-71
2022/01/30 09:05:36;;;;;;;;;;;;;;;;;;4965224;28;19932;-70
2022/01/30 09:08:08;;;;;;;;;;;;;;;;;;4965362;28;20588;-71
2022/01/30 09:10:34;;;;;;;;;;;;;;;;;;4965171;28;19930;-66
2022/01/30 09:13:00;;;;;;;;;;;;;;;;;;4964947;28;19926;-66
2022/01/30 09:15:26;;;;;;;;;;;;;;;;;;4965016;28;19926;-66
2022/01/30 09:17:53;;;;;;;;;;;;;;;;;;4965219;28;20447;-65
2022/01/30 09:20:19;;;;;;;;;;;;;;;;;;4965434;28;20285;-66
2022/01/30 09:22:45;;;;;;;;;;;;;;;;;;4966862;28;20376;-67
2022/01/30 09:25:11;;;;;;;;;;;;;;;;;;4968829;28;19926;-66
2022/01/30 09:27:37;;;;;;;;;;;;;;;;;;4968646;28;19930;-66
2022/01/30 09:30:03;;;;;;;;;;;;;;;;;;4968801;28;19950;-67
2022/01/30 09:32:29;;;;;;;;;;;;;;;;;;4968015;28;19953;-66
2022/01/30 09:34:56;;;;;;;;;;;;;;;;;;4968565;28;19926;-67
2022/01/30 09:37:22;;;;;;;;;;;;;;;;;;4965104;28;19945;-66
2022/01/30 09:39:48;;;;;;;;;;;;;;;;;;4967877;28;19926;-66
2022/01/30 09:42:16;;;;;;;;;;;;;;;;;;4968588;28;20053;-67
2022/01/30 09:44:42;;;;;;;;;;;;;;;;;;4968485;28;19929;-66
2022/01/30 09:47:08;;;;;;;;;;;;;;;;;;4964297;28;20021;-67
2022/01/30 09:49:34;;;;;;;;;;;;;;;;;;4966882;28;20041;-67
2022/01/30 09:52:00;;;;;;;;;;;;;;;;;;4968250;28;19926;-66
2022/01/30 09:54:26;;;;;;;;;;;;;;;;;;4968373;28;19927;-67
2022/01/30 09:56:53;;;;;;;;;;;;;;;;;;4968668;28;19926;-67
2022/01/30 09:59:19;;;;;;;;;;;;;;;;;;4963941;28;19926;-66
2022/01/30 10:01:45;;;;;;;;;;;;;;;;;;4968189;28;19954;-66
2022/01/30 10:04:11;;;;;;;;;;;;;;;;;;4967480;28;19935;-67
2022/01/30 10:06:38;;;;;;;;;;;;;;;;;;4967734;28;20348;-67
2022/01/30 10:09:07;;;;;;;;;;;;;;;;;;4967297;28;20046;-67
2022/01/30 10:11:37;;;;;;;;;;;;;;;;;;4968059;28;19927;-66
2022/01/30 10:14:03;;;;;;;;;;;;;;;;;;4964460;28;19926;-66
2022/01/30 10:16:29;;;;;;;;;;;;;;;;;;4967450;28;19933;-67
2022/01/30 10:18:55;;;;;;;;;;;;;;;;;;4967378;28;20017;-66
2022/01/30 10:21:21;;;;;;;;;;;;;;;;;;4968309;28;19937;-66
2022/01/30 10:23:47;;;;;;;;;;;;;;;;;;4967377;28;19934;-67
2022/01/30 10:26:18;;;;;;;;;;;;;;;;;;4967598;28;19926;-67
2022/01/30 10:28:44;;;;;;;;;;;;;;;;;;4967302;28;19934;-66
2022/01/30 10:31:10;;;;;;;;;;;;;;;;;;4967808;28;20388;-66
2022/01/30 10:33:36;;;;;;;;;;;;;;;;;;4965646;28;19926;-66
2022/01/30 10:36:03;;;;;;;;;;;;;;;;;;4967061;28;20012;-67
2022/01/30 10:38:31;;;;;;;;;;;;;;;;;;4967400;28;20381;-66
2022/01/30 10:40:58;;;;;;;;;;;;;;;;;;4967742;28;20013;-67
2022/01/30 10:43:24;;;;;;;;;;;;;;;;;;4963825;28;19984;-66
2022/01/30 10:45:50;;;;;;;;;;;;;;;;;;4966785;28;19927;-67
2022/01/30 10:48:17;;;;;;;;;;;;;;;;;;4966496;28;19981;-67
2022/01/30 10:50:44;;;;;;;;;;;;;;;;;;4966989;28;19926;-67
2022/01/30 10:53:10;;;;;;;;;;;;;;;;;;4967139;28;19938;-66
2022/01/30 10:55:36;;;;;;;;;;;;;;;;;;4966385;28;20322;-67
2022/01/30 10:58:02;;;;;;;;;;;;;;;;;;4967017;28;19930;-67
2022/01/30 11:00:28;;;;;;;;;;;;;;;;;;4967041;28;19969;-67
2022/01/30 11:02:54;;;;;;;;;;;;;;;;;;4966364;28;20009;-67
2022/01/30 11:05:20;;;;;;;;;;;;;;;;;;4966957;28;20025;-67
2022/01/30 11:07:49;;;;;;;;;;;;;;;;;;4966986;28;20021;-67
2022/01/30 11:10:23;;;;;;;;;;;;;;;;;;4966663;28;20308;-67
2022/01/30 11:13:08;;;;;;;;;;;;;;;;;;4965744;28;19934;-67
2022/01/30 11:15:36;;;;;;;;;;;;;;;;;;4966368;28;19926;-67
2022/01/30 11:18:04;;;;;;;;;;;;;;;;;;4965866;28;19941;-67
2022/01/30 11:20:30;;;;;;;;;;;;;;;;;;4966619;28;19945;-67
2022/01/30 11:22:56;;;;;;;;;;;;;;;;;;4966326;28;20330;-67
2022/01/30 11:25:22;;;;;;;;;;;;;;;;;;4967059;28;20376;-67
2022/01/30 11:27:49;;;;;;;;;;;;;;;;;;4966059;28;20407;-67
2022/01/30 11:30:15;;;;;;;;;;;;;;;;;;4966504;28;19926;-67
2022/01/30 11:32:41;;;;;;;;;;;;;;;;;;4965776;28;19926;-66
2022/01/30 11:35:07;;;;;;;;;;;;;;;;;;4966792;28;20332;-67
2022/01/30 11:37:33;;;;;;;;;;;;;;;;;;4965952;28;20372;-67
2022/01/30 11:40:00;;;;;;;;;;;;;;;;;;4966516;28;19933;-67
2022/01/30 11:42:26;;;;;;;;;;;;;;;;;;4966076;28;19980;-65
2022/01/30 11:44:52;;;;;;;;;;;;;;;;;;4966542;28;19926;-67
2022/01/30 11:47:19;;;;;;;;;;;;;;;;;;4965333;28;19926;-67
2022/01/30 11:49:45;;;;;;;;;;;;;;;;;;4966082;28;19930;-67
2022/01/30 11:52:11;;;;;;;;;;;;;;;;;;4966391;28;20013;-67
2022/01/30 11:54:37;;;;;;;;;;;;;;;;;;4966023;28;20392;-66
2022/01/30 11:57:03;;;;;;;;;;;;;;;;;;4965618;28;20398;-66
2022/01/30 11:59:29;;;;;;;;;;;;;;;;;;4965819;28;20394;-66
2022/01/30 12:01:55;;;;;;;;;;;;;;;;;;4966642;28;19926;-66
2022/01/30 12:04:25;;;;;;;;;;;;;;;;;;4965552;28;19952;-66
2022/01/30 12:06:51;;;;;;;;;;;;;;;;;;4966752;28;20029;-67
2022/01/30 12:09:17;;;;;;;;;;;;;;;;;;4966047;28;19926;-66
2022/01/30 12:11:47;;;;;;;;;;;;;;;;;;4966204;28;19933;-67
2022/01/30 12:14:13;;;;;;;;;;;;;;;;;;4965384;28;19970;-67
2022/01/30 12:16:39;;;;;;;;;;;;;;;;;;4965726;28;19985;-67
2022/01/30 12:19:05;;;;;;;;;;;;;;;;;;4965294;28;20073;-66
2022/01/30 12:21:31;;;;;;;;;;;;;;;;;;4965624;28;19930;-67
2022/01/30 12:23:57;;;;;;;;;;;;;;;;;;4965189;28;20017;-67
2022/01/30 12:26:23;;;;;;;;;;;;;;;;;;4966247;28;19985;-66
2022/01/30 12:28:49;;;;;;;;;;;;;;;;;;4965385;28;20004;-67
2022/01/30 12:31:15;;;;;;;;;;;;;;;;;;4965901;28;20421;-67
2022/01/30 12:33:42;;;;;;;;;;;;;;;;;;4964258;28;20573;-67
2022/01/30 12:36:08;;;;;;;;;;;;;;;;;;4965806;28;19934;-67
2022/01/30 12:38:34;;;;;;;;;;;;;;;;;;4965420;28;19926;-67
2022/01/30 12:41:01;;;;;;;;;;;;;;;;;;4965808;28;19949;-67
2022/01/30 12:43:27;;;;;;;;;;;;;;;;;;4965423;28;19933;-67
2022/01/30 12:45:53;;;;;;;;;;;;;;;;;;4966047;28;19933;-66
2022/01/30 12:48:19;;;;;;;;;;;;;;;;;;4964948;28;19927;-66
2022/01/30 12:50:46;;;;;;;;;;;;;;;;;;4965168;28;19926;-66
2022/01/30 12:53:14;;;;;;;;;;;;;;;;;;4965907;28;19926;-66
2022/01/30 12:55:40;;;;;;;;;;;;;;;;;;4966343;28;20119;-66
2022/01/30 12:58:06;;;;;;;;;;;;;;;;;;4968282;28;20467;-66
2022/01/30 13:00:32;;;;;;;;;;;;;;;;;;4963483;28;20403;-67
2022/01/30 13:02:58;;;;;;;;;;;;;;;;;;4965689;28;19936;-67
2022/01/30 13:05:24;;;;;;;;;;;;;;;;;;4966362;28;20405;-68
2022/01/30 13:07:50;;;;;;;;;;;;;;;;;;4965985;28;19930;-67
2022/01/30 13:10:16;;;;;;;;;;;;;;;;;;4964726;28;21174;-67
2022/01/30 13:12:43;;;;;;;;;;;;;;;;;;4965995;28;19926;-67
2022/01/30 13:15:09;;;;;;;;;;;;;;;;;;4966244;28;20363;-67
2022/01/30 13:17:35;;;;;;;;;;;;;;;;;;4965779;28;19961;-68
2022/01/30 13:20:01;;;;;;;;;;;;;;;;;;4948828;28;20514;-67
2022/01/30 13:22:34;;;;;;;;;;;;;;;;;;4966208;28;19929;-67
2022/01/30 13:25:00;;;;;;;;;;;;;;;;;;4966000;28;19936;-67
2022/01/30 13:27:26;;;;;;;;;;;;;;;;;;4966635;28;20021;-63
2022/01/30 13:29:58;;;;;;;;;;;;;;;;;;4962601;28;19937;-66
2022/01/30 13:32:25;;;;;;;;;;;;;;;;;;4965975;28;19933;-67
2022/01/30 13:34:51;;;;;;;;;;;;;;;;;;4966128;28;20294;-66
2022/01/30 13:37:18;;;;;;;;;;;;;;;;;;4965612;28;19930;-68
2022/01/30 13:39:50;;;;;;;;;;;;;;;;;;4966422;28;19930;-67
2022/01/30 13:47:59;;;;;;;;;;;;;;;;;;4965278;28;19992;-67
2022/01/30 13:50:25;;;;;;;;;;;;;;;;;;4966138;28;19966;-67
2022/01/30 13:52:52;;;;;;;;;;;;;;;;;;4966164;28;19958;-67
2022/01/30 13:55:18;;;;;;;;;;;;;;;;;;4966070;28;19934;-67
2022/01/30 13:57:44;;;;;;;;;;;;;;;;;;4961806;28;19970;-67
2022/01/30 14:00:10;;;;;;;;;;;;;;;;;;4965414;28;19959;-67
2022/01/30 14:02:36;;;;;;;;;;;;;;;;;;4965095;28;20295;-68
2022/01/30 14:05:02;;;;;;;;;;;;;;;;;;4966004;28;20368;-65
2022/01/30 14:07:28;;;;;;;;;;;;;;;;;;4964845;28;19934;-65
2022/01/30 14:09:55;;;;;;;;;;;;;;;;;;4965119;28;19956;-65
2022/01/30 14:12:25;;;;;;;;;;;;;;;;;;4964558;28;19988;-65
2022/01/30 14:14:51;;;;;;;;;;;;;;;;;;4964710;28;19930;-65
2022/01/30 14:17:18;;;;;;;;;;;;;;;;;;4962463;28;19937;-65
2022/01/30 14:19:51;;;;;;;;;;;;;;;;;;4954203;28;19934;-65
2022/01/30 14:22:19;;;;;;;;;;;;;;;;;;4957454;28;19930;-66
2022/01/30 14:24:46;;;;;;;;;;;;;;;;;;4958545;28;20721;-65
2022/01/30 14:27:12;;;;;;;;;;;;;;;;;;4957305;28;19930;-66
2022/01/30 14:29:38;;;;;;;;;;;;;;;;;;4957775;28;19935;-65
2022/01/30 14:32:05;;;;;;;;;;;;;;;;;;4955002;28;19934;-68
2022/01/30 14:34:31;;;;;;;;;;;;;;;;;;4953759;28;19992;-65
2022/01/30 14:36:59;;;;;;;;;;;;;;;;;;4947702;28;20370;-65
2022/01/30 14:39:25;;;;;;;;;;;;;;;;;;4945122;28;19927;-66
2022/01/30 14:41:51;;;;;;;;;;;;;;;;;;4944910;28;20400;-66
2022/01/30 14:44:19;;;;;;;;;;;;;;;;;;4946963;28;20344;-66
2022/01/30 14:46:45;;;;;;;;;;;;;;;;;;4948601;28;20474;-65
2022/01/30 14:49:12;;;;;;;;;;;;;;;;;;4944707;28;20021;-65
2022/01/30 14:51:38;;;;;;;;;;;;;;;;;;4944719;28;19926;-65
2022/01/30 14:54:04;;;;;;;;;;;;;;;;;;4944257;28;19926;-66
2022/01/30 14:56:30;;;;;;;;;;;;;;;;;;4944451;28;19958;-65
2022/01/30 14:58:56;;;;;;;;;;;;;;;;;;4944644;28;19934;-65
2022/01/30 15:01:22;;;;;;;;;;;;;;;;;;4947093;28;19926;-65
2022/01/30 15:03:48;;;;;;;;;;;;;;;;;;4943352;28;19999;-66
2022/01/30 15:06:14;;;;;;;;;;;;;;;;;;4944471;28;19934;-65
2022/01/30 15:08:40;;;;;;;;;;;;;;;;;;4943959;28;19927;-66
2022/01/30 15:11:06;;;;;;;;;;;;;;;;;;4944362;28;19973;-65
2022/01/30 15:13:36;;;;;;;;;;;;;;;;;;4944022;28;19935;-65
2022/01/30 15:16:07;;;;;;;;;;;;;;;;;;4944543;28;20160;-65
2022/01/30 15:18:36;;;;;;;;;;;;;;;;;;4949640;28;19976;-65
2022/01/30 15:21:03;;;;;;;;;;;;;;;;;;4960894;28;19937;-66
2022/01/30 15:23:29;;;;;;;;;;;;;;;;;;4961242;28;20018;-66
2022/01/30 15:25:55;;;;;;;;;;;;;;;;;;4963020;28;19930;-66
2022/01/30 15:28:21;;;;;;;;;;;;;;;;;;4964653;28;19936;-65
2022/01/30 15:30:47;;;;;;;;;;;;;;;;;;4959877;28;19926;-65
2022/01/30 15:33:13;;;;;;;;;;;;;;;;;;4963259;28;19973;-65
2022/01/30 15:35:39;;;;;;;;;;;;;;;;;;4959509;28;19930;-66
2022/01/30 15:38:05;;;;;;;;;;;;;;;;;;4964298;28;19977;-66
2022/01/30 15:40:32;;;;;;;;;;;;;;;;;;4963412;28;19926;-66
2022/01/30 15:43:00;;;;;;;;;;;;;;;;;;4964238;28;19926;-65
2022/01/30 15:50:38;;;;;;;;;;;;;;;;;;4963657;28;19930;-65
2022/01/30 15:53:04;;;;;;;;;;;;;;;;;;4963591;28;19972;-66
2022/01/30 15:55:30;;;;;;;;;;;;;;;;;;4963223;28;19936;-65
2022/01/30 15:57:57;;;;;;;;;;;;;;;;;;4963294;28;20292;-65
2022/01/30 16:00:23;;;;;;;;;;;;;;;;;;4960023;28;19953;-65
2022/01/30 16:02:49;;;;;;;;;;;;;;;;;;4962598;28;20261;-65
2022/01/30 16:05:17;;;;;;;;;;;;;;;;;;4946620;28;19930;-65
2022/01/30 16:07:43;;;;;;;;;;;;;;;;;;4963083;28;19977;-65
2022/01/30 16:10:14;;;;;;;;;;;;;;;;;;4963607;28;20012;-65
2022/01/30 16:17:52;;;;;;;;;;;;;;;;;;4962320;28;19926;-65
2022/01/30 16:20:18;;;;;;;;;;;;;;;;;;4962942;28;19934;-65
2022/01/30 16:22:44;;;;;;;;;;;;;;;;;;4944575;28;20430;-66
2022/01/30 16:25:11;;;;;;;;;;;;;;;;;;4962626;28;19949;-65
2022/01/30 16:27:37;;;;;;;;;;;;;;;;;;4963113;28;19930;-65
2022/01/30 16:30:03;;;;;;;;;;;;;;;;;;4954634;28;19977;-65
2022/01/30 16:32:29;;;;;;;;;;;;;;;;;;4951230;28;19981;-65
2022/01/30 16:34:55;;;;;;;;;;;;;;;;;;4946146;28;20336;-65
2022/01/30 16:37:21;;;;;;;;;;;;;;;;;;4952862;28;19961;-65
2022/01/30 16:39:47;;;;;;;;;;;;;;;;;;4950817;28;19981;-65
2022/01/30 16:42:14;;;;;;;;;;;;;;;;;;4937924;28;19926;-65
2022/01/30 16:44:42;;;;;;;;;;;;;;;;;;4954803;28;19958;-65
2022/01/30 16:47:27;;;;;;;;;;;;;;;;;;4948519;28;19927;-66
2022/01/30 16:49:53;;;;;;;;;;;;;;;;;;4942328;28;19926;-65
2022/01/30 16:52:19;;;;;;;;;;;;;;;;;;4953880;28;19926;-66
2022/01/30 16:54:45;;;;;;;;;;;;;;;;;;4951601;28;19936;-66
2022/01/30 16:57:11;;;;;;;;;;;;;;;;;;4953608;28;19927;-65
2022/01/30 16:59:37;;;;;;;;;;;;;;;;;;4952859;28;19926;-66
2022/01/30 17:02:03;;;;;;;;;;;;;;;;;;4956575;28;19926;-66
2022/01/30 17:04:29;;;;;;;;;;;;;;;;;;4946351;28;19926;-67
2022/01/30 17:06:56;;;;;;;;;;;;;;;;;;4946191;28;20056;-69
2022/01/30 17:09:26;;;;;;;;;;;;;;;;;;4951520;28;20000;-68
2022/01/30 17:12:00;;;;;;;;;;;;;;;;;;4946414;28;19926;-69
2022/01/30 17:14:26;;;;;;;;;;;;;;;;;;4964523;28;19926;-68
2022/01/30 17:16:52;;;;;;;;;;;;;;;;;;4964107;28;19926;-68
2022/01/30 17:19:18;;;;;;;;;;;;;;;;;;4965071;28;19926;-67
2022/01/30 17:21:44;;;;;;;;;;;;;;;;;;4964743;28;19930;-68
2022/01/30 17:24:10;;;;;;;;;;;;;;;;;;4947359;28;20351;-68
2022/01/30 17:26:36;;;;;;;;;;;;;;;;;;4963411;28;19926;-68
2022/01/30 17:29:02;;;;;;;;;;;;;;;;;;4965070;28;20472;-68
2022/01/30 17:31:28;;;;;;;;;;;;;;;;;;4964035;28;20005;-68
2022/01/30 17:33:54;;;;;;;;;;;;;;;;;;4964563;28;20013;-68